Sheridan, WY

2:01 AM MDT on October 22, 2014 (GMT -0600)
KWYSHERI2 | Change Station
CLOSE
Current Station
Personal Weather Station
Location: Sheridan, WY
Elevation: 3828 ft
Nearby Weather Stations

Elev 3828 ft 44.81 °N, 106.98 °W | Updated 8 minutes ago

Clear
Clear
48.2 °F
Feels Like 47 °F
N
4.0
Wind Variable Wind from WNW
Gusts 4.0 mph

Today
High -- | Low -- °F
--% Chance of Precip.
Yesterday
High -- | Low -- °F
Precip. -- in
7:32 AM 6:11 PM
Waning Crescent, 3% visible
Pressure 29.88 in
Visibility 10.0 miles
Clouds Clear
Windchill 47 °F
Dew Point 28 °F
Humidity 46%
Rainfall 0.00 in
Snow Depth Not available.
UV 0 out of 12
Pollen 2.30 out of 12
Air Quality Not available.
Flu Activity Not available.
METAR KSHR 220753Z AUTO 30010KT 10SM CLR 08/M02 A2995 RMK AO2 PK WND 30026/0716 SLP119 T00831022 TSNO

More Conditions Fewer Conditions

Pressure 29.88 in
Visibility 10.0 miles
Clouds Clear
Windchill 47 °F
Dew Point 28 °F
Humidity 46%
Rainfall 0.00 in
Snow Depth Not available.
UV 0 out of 12
Pollen 2.30 out of 12
Air Quality Not available.
Flu Activity Not available.
METAR KSHR 220753Z AUTO 30010KT 10SM CLR 08/M02 A2995 RMK AO2 PK WND 30026/0716 SLP119 T00831022 TSNO

More Conditions Fewer Conditions

10-Day Weather Forecast

Almanac

Astronomy

Oct. 22, 2014 Rise Set
Actual Time 7:32 AM MDT 6:11 PM MDT
Civil Twilight 7:02 AM MDT 6:41 PM MDT
Nautical Twilight 6:28 AM MDT 7:15 PM MDT
Astronomical Twilight 5:54 AM MDT 7:49 PM MDT
Moon 6:13 AM MDT 5:41 PM MDT
Length of Visible Light 11h 38m
Length of Day
10h 38m
Tomorrow will be 2m 55s shorter.
Waning Crescent, 3% of the Moon is Illuminated
Today
Waning Crescent
Oct 23
New
Oct 30
First Quarter
Nov 6
Full
Nov 14
Last Quarter

Today's Extremes

State Highs State Lows

Community

WunderPhotos

Upload Photos

1,763,889 photos uploaded!

Nearby

Snow Depth

Station Depth Elevation
Casper Mountain 0 in 7850 ft
Sylvan Lake 0 in 8420 ft
Reno Hill 0 in 8500 ft
Togwotee Pass 0 in 7980 ft
Laprele Creek 0 in 8375 ft

Earthquake Activity

City Distance Mag. Time & Date
No recent earthquake activity has been reported nearby.
Minimum magnitude displayed is 2.5.

Coastal Water Temperatures

Place Temperature
No Stations Reporting

Nearby Weather Stations